Time;durP1;ratioP1;P1;durP2;ratioP2;P2;SDS_P1;SDS_P2;PMS_P1;PMS_P2;Temp;Humidity;BMP_temperature;BMP_pressure;BME280_temperature;BME280_humidity;BME280_pressure;Samples;Min_cycle;Max_cycle;Signal;HPM_P1;HPM_P2
2021/08/26 00:09:32;;;;;;;7.78;4.57;;;;;;;17.04;54.82;99755.09;10447409;28;20080;-64
2021/08/26 00:14:34;;;;;;;7.80;4.15;;;;;;;17.07;54.98;99743.41;10443299;28;20128;-63
2021/08/26 00:19:38;;;;;;;8.27;4.55;;;;;;;16.88;54.94;99731.00;10441335;28;20094;-63
2021/08/26 00:24:39;;;;;;;10.35;5.30;;;;;;;16.89;55.28;99722.13;10446001;28;20525;-65
2021/08/26 00:29:41;;;;;;;8.38;5.78;;;;;;;16.68;55.88;99721.38;10446449;28;20081;-64
2021/08/26 00:34:43;;;;;;;8.23;5.28;;;;;;;16.81;55.63;99725.41;10444639;28;20554;-65
2021/08/26 00:39:45;;;;;;;9.40;6.70;;;;;;;16.81;55.69;99736.00;10446269;28;20128;-64
2021/08/26 00:44:48;;;;;;;9.07;7.07;;;;;;;16.85;55.57;99723.38;10439781;28;20136;-64
2021/08/26 00:49:56;;;;;;;10.00;6.63;;;;;;;16.88;55.86;99721.28;10439700;28;20131;-64
2021/08/26 00:54:58;;;;;;;8.30;6.35;;;;;;;16.99;55.27;99712.41;10423957;28;20045;-64
2021/08/26 01:00:02;;;;;;;9.23;7.55;;;;;;;16.89;55.27;99698.34;10445018;28;20072;-64
2021/08/26 01:05:34;;;;;;;10.32;7.00;;;;;;;16.93;55.62;99705.03;10443669;28;20504;-64
2021/08/26 01:10:37;;;;;;;8.45;6.03;;;;;;;16.94;55.38;99701.41;10431784;28;20100;-64
2021/08/26 01:15:38;;;;;;;6.93;5.60;;;;;;;16.80;55.57;99704.44;10442668;28;20110;-64
2021/08/26 01:20:40;;;;;;;9.60;5.60;;;;;;;16.92;55.38;99698.91;10444459;28;20482;-64
2021/08/26 01:25:44;;;;;;;7.05;4.88;;;;;;;16.88;55.86;99694.03;10443632;28;20521;-64
2021/08/26 01:30:46;;;;;;;6.60;5.25;;;;;;;16.83;55.73;99677.78;10444574;28;20505;-64
2021/08/26 01:35:50;;;;;;;7.05;4.90;;;;;;;16.83;55.58;99678.56;10443266;28;20136;-64
2021/08/26 01:40:52;;;;;;;8.30;4.90;;;;;;;16.82;55.69;99678.72;10444642;28;20111;-64
2021/08/26 01:45:54;;;;;;;7.72;5.05;;;;;;;16.67;55.80;99667.72;10442106;28;20049;-64
2021/08/26 01:50:56;;;;;;;8.32;5.30;;;;;;;16.72;55.59;99664.66;10444283;28;20091;-64
2021/08/26 01:55:57;;;;;;;8.07;6.03;;;;;;;16.63;55.69;99661.03;10443279;28;20140;-64
2021/08/26 02:00:59;;;;;;;7.25;5.93;;;;;;;16.62;55.89;99658.53;10443561;28;20466;-64
2021/08/26 02:06:01;;;;;;;8.57;7.68;;;;;;;16.63;56.03;99652.31;10450852;28;20048;-64
2021/08/26 02:11:03;;;;;;;8.18;6.55;;;;;;;16.59;55.99;99653.56;10449488;28;20085;-64
2021/08/26 02:16:06;;;;;;;8.98;7.20;;;;;;;16.72;56.17;99652.31;10454673;28;20045;-64
2021/08/26 02:21:07;;;;;;;8.27;6.70;;;;;;;16.80;55.67;99641.06;10457713;28;20547;-64
2021/08/26 02:26:11;;;;;;;8.80;6.63;;;;;;;16.80;56.04;99638.41;10418687;28;20136;-64
2021/08/26 02:31:12;;;;;;;9.02;6.90;;;;;;;16.71;56.33;99631.31;10418524;28;20096;-64
2021/08/26 02:36:14;;;;;;;7.97;6.80;;;;;;;16.66;56.93;99636.19;10418610;28;20099;-65
2021/08/26 02:41:16;;;;;;;8.68;7.15;;;;;;;16.68;57.95;99631.59;10423215;28;20120;-64
2021/08/26 02:46:17;;;;;;;10.63;6.78;;;;;;;16.51;58.48;99632.28;10459091;28;20172;-64
2021/08/26 02:51:19;;;;;;;8.90;6.68;;;;;;;16.49;59.46;99623.66;10451547;28;20561;-64
2021/08/26 02:56:21;;;;;;;7.40;5.97;;;;;;;16.33;59.70;99620.66;10417533;28;20041;-64
2021/08/26 03:01:23;;;;;;;9.15;6.75;;;;;;;16.27;60.08;99621.19;10421145;28;20083;-64
2021/08/26 03:06:25;;;;;;;9.15;6.10;;;;;;;16.25;60.17;99623.97;10452347;28;20049;-64
2021/08/26 03:11:26;;;;;;;8.35;5.80;;;;;;;16.22;60.67;99613.69;10450926;28;20182;-64
2021/08/26 03:16:28;;;;;;;9.40;5.72;;;;;;;16.27;60.81;99619.41;10450953;28;20128;-64
2021/08/26 03:21:30;;;;;;;8.00;5.60;;;;;;;16.28;60.59;99602.59;10432960;28;20080;-64
2021/08/26 03:26:32;;;;;;;8.18;4.82;;;;;;;16.22;60.88;99596.03;10407989;28;20132;-64
2021/08/26 03:31:34;;;;;;;8.90;5.50;;;;;;;16.17;60.99;99597.44;10426806;28;20089;-64
2021/08/26 03:36:35;;;;;;;7.15;5.07;;;;;;;16.09;61.07;99592.84;10450384;28;20214;-64
2021/08/26 03:41:37;;;;;;;8.05;5.25;;;;;;;16.12;61.08;99595.19;10449351;28;20084;-65
2021/08/26 03:46:39;;;;;;;8.52;4.90;;;;;;;16.19;61.01;99596.34;10449946;28;20537;-64
2021/08/26 03:51:41;;;;;;;6.85;4.50;;;;;;;16.28;61.08;99591.22;10430969;28;20049;-64
2021/08/26 03:56:42;;;;;;;6.50;4.32;;;;;;;16.16;61.14;99590.50;10408188;28;20157;-64
2021/08/26 04:01:44;;;;;;;7.18;4.20;;;;;;;16.18;61.23;99591.19;10426364;28;20091;-64
2021/08/26 04:06:46;;;;;;;7.45;4.35;;;;;;;16.21;61.26;99585.63;10448571;28;20060;-64
2021/08/26 04:11:48;;;;;;;8.98;4.47;;;;;;;16.18;61.58;99589.38;10448344;28;20144;-64
2021/08/26 04:16:49;;;;;;;5.55;3.45;;;;;;;16.13;61.76;99577.56;10448533;28;20048;-64
2021/08/26 04:21:51;;;;;;;5.25;3.03;;;;;;;16.14;62.10;99571.34;10428888;28;20513;-64
2021/08/26 04:26:53;;;;;;;4.57;2.63;;;;;;;16.10;61.90;99576.03;10407489;28;20058;-64
2021/08/26 04:31:55;;;;;;;4.38;2.90;;;;;;;16.02;62.43;99575.84;10426203;28;20136;-64
2021/08/26 04:36:57;;;;;;;2.90;2.00;;;;;;;16.06;62.38;99569.34;10447637;28;20167;-64
2021/08/26 04:41:58;;;;;;;4.60;2.15;;;;;;;16.10;62.26;99570.75;10426126;28;20136;-64
2021/08/26 04:47:00;;;;;;;3.00;1.80;;;;;;;16.00;62.61;99571.69;10404914;28;20084;-64
2021/08/26 04:52:02;;;;;;;3.08;1.83;;;;;;;16.00;62.53;99569.88;10441569;28;20131;-63
2021/08/26 04:57:04;;;;;;;3.55;1.80;;;;;;;16.04;62.63;99562.56;10446873;28;20053;-64
2021/08/26 05:02:06;;;;;;;2.72;1.55;;;;;;;16.15;62.90;99575.63;10446927;28;20127;-65
2021/08/26 05:07:11;;;;;;;3.08;1.60;;;;;;;16.11;62.63;99575.06;10445339;28;20064;-65
2021/08/26 05:12:13;;;;;;;2.38;1.45;;;;;;;16.20;62.18;99587.44;10445916;28;20084;-64
2021/08/26 05:17:15;;;;;;;1.92;1.30;;;;;;;16.48;60.95;99579.75;10446457;28;20081;-64
2021/08/26 05:22:17;;;;;;;2.38;1.38;;;;;;;16.36;60.60;99586.09;10424775;28;20136;-64
2021/08/26 05:27:19;;;;;;;3.00;1.70;;;;;;;16.17;60.23;99592.16;10404648;28;20140;-64
2021/08/26 05:32:21;;;;;;;5.20;2.22;;;;;;;16.07;59.20;99596.56;10426404;28;20053;-64
2021/08/26 05:37:22;;;;;;;3.53;1.90;;;;;;;15.66;59.10;99602.78;10427388;28;20661;-64
2021/08/26 05:42:26;;;;;;;7.22;2.58;;;;;;;15.59;59.28;99606.91;10404947;28;20128;-64
2021/08/26 05:47:27;;;;;;;7.18;2.97;;;;;;;15.78;58.52;99616.72;10421389;28;20076;-65
2021/08/26 05:52:29;;;;;;;5.90;2.65;;;;;;;15.81;57.87;99603.28;10453841;28;20089;-64
2021/08/26 05:57:31;;;;;;;10.57;3.72;;;;;;;15.66;57.50;99591.41;10436187;28;20092;-64
2021/08/26 06:02:32;;;;;;;13.07;4.03;;;;;;;15.45;57.29;99598.50;10413144;28;20057;-64
2021/08/26 06:07:35;;;;;;;12.68;4.22;;;;;;;15.47;56.96;99613.19;10426394;28;20049;-64
2021/08/26 06:12:42;;;;;;;11.85;4.78;;;;;;;15.39;57.00;99631.44;10430417;28;20085;-64
2021/08/26 06:17:43;;;;;;;10.35;4.25;;;;;;;15.50;57.05;99643.75;10427562;28;20091;-64
2021/08/26 06:22:45;;;;;;;13.30;4.60;;;;;;;15.71;56.25;99637.53;10450946;28;20131;-64
2021/08/26 06:27:47;;;;;;;11.30;4.45;;;;;;;15.89;55.97;99643.00;10452657;28;20140;-64
2021/08/26 06:32:49;;;;;;;12.52;5.00;;;;;;;16.09;55.54;99652.66;10443921;28;20049;-65
2021/08/26 06:37:50;;;;;;;13.73;4.05;;;;;;;16.17;55.39;99656.31;10411586;28;20081;-65
2021/08/26 06:42:52;;;;;;;18.90;5.20;;;;;;;16.10;54.87;99659.63;10411363;28;20050;-64
2021/08/26 06:47:54;;;;;;;13.35;5.00;;;;;;;16.31;54.63;99663.03;10411056;28;20080;-64
2021/08/26 06:52:56;;;;;;;10.80;4.60;;;;;;;16.43;54.49;99669.88;10417669;28;20053;-64
2021/08/26 06:57:58;;;;;;;8.57;3.25;;;;;;;16.48;54.06;99664.22;10451495;28;20442;-64
2021/08/26 07:03:00;;;;;;;8.73;3.63;;;;;;;16.49;54.21;99665.91;10410079;28;20092;-65
2021/08/26 07:08:02;;;;;;;8.95;3.78;;;;;;;16.49;53.30;99665.91;10427438;28;20049;-65
2021/08/26 07:13:03;;;;;;;12.98;3.80;;;;;;;16.50;52.86;99672.84;10451092;28;20057;-64
2021/08/26 07:18:06;;;;;;;7.68;3.65;;;;;;;16.60;52.64;99673.69;10450585;28;20657;-65
2021/08/26 07:23:08;;;;;;;8.80;3.47;;;;;;;16.90;52.07;99671.78;10443255;28;20124;-65
2021/08/26 07:28:10;;;;;;;14.20;4.32;;;;;;;17.18;51.79;99658.72;10449194;28;20118;-65
2021/08/26 07:33:11;;;;;;;8.93;2.90;;;;;;;18.07;49.92;99652.97;10418567;28;20127;-65
2021/08/26 07:38:13;;;;;;;6.90;2.75;;;;;;;18.57;49.14;99648.97;10409233;28;20077;-65
2021/08/26 07:43:15;;;;;;;6.45;2.75;;;;;;;18.50;48.48;99655.88;10441247;28;20136;-65
2021/08/26 07:48:17;;;;;;;7.30;2.40;;;;;;;18.28;48.06;99656.28;10450280;28;20133;-65
2021/08/26 07:53:20;;;;;;;8.63;2.95;;;;;;;18.33;47.73;99654.00;10447960;28;20119;-65
2021/08/26 07:58:21;;;;;;;8.10;2.50;;;;;;;18.18;47.48;99650.16;10408774;28;20049;-65
2021/08/26 08:03:23;;;;;;;6.72;2.40;;;;;;;18.11;46.99;99647.25;10440180;28;20744;-65
2021/08/26 08:08:25;;;;;;;8.77;2.38;;;;;;;18.30;46.44;99655.13;10448833;28;20088;-65
2021/08/26 08:13:26;;;;;;;7.00;2.50;;;;;;;18.36;46.65;99653.72;10416889;28;20053;-64
2021/08/26 08:18:28;;;;;;;7.90;2.45;;;;;;;18.45;46.40;99644.88;10407592;28;20080;-64
2021/08/26 08:23:31;;;;;;;6.82;2.20;;;;;;;18.49;46.07;99643.59;10438192;28;20087;-61
2021/08/26 08:28:33;;;;;;;7.03;2.00;;;;;;;18.79;45.33;99643.25;10447715;28;20291;-61
2021/08/26 08:33:35;;;;;;;9.07;2.22;;;;;;;19.22;44.15;99637.19;10417699;28;20213;-62
2021/08/26 08:38:37;;;;;;;9.60;2.13;;;;;;;19.88;43.33;99630.41;10426008;28;20469;-62
2021/08/26 08:43:38;;;;;;;8.05;2.42;;;;;;;19.65;43.12;99623.09;10447333;28;20111;-62
2021/08/26 08:48:42;;;;;;;8.18;2.05;;;;;;;19.48;43.19;99631.94;10445391;28;20512;-61
2021/08/26 08:53:46;;;;;;;9.00;2.40;;;;;;;19.46;43.46;99640.03;10418859;28;20805;-62
2021/08/26 08:58:47;;;;;;;8.90;2.28;;;;;;;19.45;43.98;99643.69;10426302;28;20076;-62
2021/08/26 09:03:49;;;;;;;7.85;2.65;;;;;;;19.83;42.97;99634.50;10447065;28;20124;-62
2021/08/26 09:09:03;;;;;;;6.68;2.10;;;;;;;19.98;40.90;99643.56;10444840;28;20080;-62
2021/08/26 09:14:10;;;;;;;5.97;1.65;;;;;;;19.69;41.81;99645.66;10445804;28;20513;-62
2021/08/26 09:19:33;;;;;;;7.78;2.17;;;;;;;19.67;41.90;99629.06;10444207;28;20531;-62
2021/08/26 09:24:46;;;;;;;7.72;1.88;;;;;;;20.18;40.85;99611.28;10419355;28;20088;-61
2021/08/26 09:30:26;;;;;;;6.30;1.95;;;;;;;20.72;40.11;99603.84;10404975;28;20140;-61
2021/08/26 09:35:31;;;;;;;5.70;1.90;;;;;;;21.44;39.41;99608.34;10402324;28;20524;-61
2021/08/26 09:40:44;;;;;;;6.68;1.90;;;;;;;21.42;38.36;99613.84;10405523;28;20521;-62
2021/08/26 09:45:48;;;;;;;412.10;100.72;;;;;;;21.32;38.60;99612.34;10404788;28;20387;-62
2021/08/26 09:50:52;;;;;;;5.65;1.80;;;;;;;21.20;39.00;99611.81;10419052;28;20045;-62
2021/08/26 09:55:59;;;;;;;4.30;1.60;;;;;;;21.01;38.17;99615.66;10444975;28;20452;-62
2021/08/26 10:01:23;;;;;;;5.68;1.90;;;;;;;20.99;38.14;99622.13;10443503;28;20585;-62
2021/08/26 10:06:26;;;;;;;3.97;1.50;;;;;;;22.08;37.08;99610.03;10408509;28;20111;-62
2021/08/26 10:11:28;;;;;;;4.72;1.67;;;;;;;22.07;37.59;99606.53;10459608;28;20106;-61
2021/08/26 10:16:30;;;;;;;4.38;1.67;;;;;;;21.74;37.97;99613.75;10445358;28;20076;-62
2021/08/26 10:21:31;;;;;;;2.35;1.30;;;;;;;21.92;37.92;99621.56;10442759;28;20413;-62
2021/08/26 10:26:34;;;;;;;3.92;1.45;;;;;;;21.47;38.07;99622.16;10434996;28;20072;-61
2021/08/26 10:31:38;;;;;;;2.55;1.20;;;;;;;21.24;38.72;99613.16;10415532;28;20073;-62
2021/08/26 10:36:59;;;;;;;4.20;1.35;;;;;;;21.21;39.00;99616.16;10407819;28;20045;-62
2021/08/26 10:42:19;;;;;;;;;;;;;;;21.09;39.83;99612.16;10412851;28;20684;-62
2021/08/26 10:47:22;;;;;;;0.30;0.30;;;;;;;21.66;38.45;99618.31;10411258;28;20008;-62
2021/08/26 10:52:55;;;;;;;0.40;0.40;;;;;;;21.19;39.39;99609.34;10451383;28;20057;-62
2021/08/26 10:58:25;;;;;;;0.30;0.30;;;;;;;20.82;40.14;99620.47;10450105;28;20068;-62
2021/08/26 11:03:45;;;;;;;0.30;0.30;;;;;;;20.85;40.94;99626.25;10434273;28;20080;-62
2021/08/26 11:08:48;;;;;;;0.20;0.20;;;;;;;20.67;41.04;99614.94;10433509;28;20053;-62
2021/08/26 11:13:51;;;;;;;0.20;0.20;;;;;;;20.13;42.06;99615.44;10451381;28;20136;-62
2021/08/26 11:19:19;;;;;;;0.20;0.20;;;;;;;20.32;41.25;99607.19;10438421;28;20049;-62
2021/08/26 11:24:43;;;;;;;0.25;0.25;;;;;;;20.22;42.11;99601.16;10409526;28;20073;-63
2021/08/26 11:29:45;;;;;;;0.65;0.65;;;;;;;20.44;42.03;99613.84;10410423;28;20128;-63
2021/08/26 11:34:50;;;;;;;0.68;0.68;;;;;;;20.36;42.12;99608.53;10434653;28;20143;-63
2021/08/26 11:40:13;;;;;;;0.65;0.65;;;;;;;20.48;41.52;99612.53;10430597;28;20131;-62
2021/08/26 11:45:22;;;;;;;0.98;0.73;;;;;;;20.74;42.11;99607.97;10408405;28;20479;-62
2021/08/26 11:50:39;;;;;;;0.67;0.67;;;;;;;21.03;41.10;99623.44;10408849;28;20140;-62
2021/08/26 11:55:44;;;;;;;3.25;3.08;;;;;;;21.45;40.96;99610.84;10408212;28;20590;-62
2021/08/26 12:00:49;;;;;;;0.10;0.10;;;;;;;21.43;40.74;99612.00;10432723;28;20139;-62
2021/08/26 12:05:51;;;;;;;0.17;0.17;;;;;;;21.42;40.69;99605.84;10449037;28;20048;-63
2021/08/26 12:10:53;;;;;;;0.20;0.20;;;;;;;21.24;40.81;99607.84;10407983;28;20081;-62
2021/08/26 12:15:55;;;;;;;0.20;0.20;;;;;;;21.46;40.22;99601.00;10407028;28;20049;-62
2021/08/26 12:21:02;;;;;;;0.30;0.30;;;;;;;21.55;40.11;99600.00;10424260;28;20052;-62
2021/08/26 12:26:12;;;;;;;0.20;0.20;;;;;;;21.58;40.40;99591.69;10448737;28;20053;-62
2021/08/26 12:31:16;;;;;;;0.20;0.20;;;;;;;21.49;40.94;99598.03;10430488;28;20140;-62
2021/08/26 12:36:19;;;;;;;0.30;0.30;;;;;;;21.66;40.71;99587.16;10406790;28;20056;-62
2021/08/26 12:41:37;;;;;;;0.20;0.20;;;;;;;21.63;40.74;99584.88;10426252;28;20401;-62
2021/08/26 12:46:43;;;;;;;0.30;0.30;;;;;;;21.73;40.22;99580.19;10447232;28;20722;-62
2021/08/26 12:51:54;;;;;;;0.30;0.30;;;;;;;21.95;39.53;99583.91;10426571;28;20076;-63
2021/08/26 12:56:57;;;;;;;0.30;0.30;;;;;;;22.46;38.51;99567.38;10406871;28;20045;-62
2021/08/26 13:02:07;;;;;;;0.80;0.80;;;;;;;22.61;36.80;99570.13;10443438;28;20045;-62
2021/08/26 13:07:21;;;;;;;0.80;0.80;;;;;;;22.73;36.82;99558.06;10446669;28;20049;-62
2021/08/26 13:12:27;;;;;;;0.90;0.90;;;;;;;22.61;37.84;99565.63;10405443;28;20618;-62
2021/08/26 13:17:29;;;;;;;0.80;0.80;;;;;;;22.53;38.00;99552.34;10405727;28;20080;-62
2021/08/26 13:22:32;;;;;;;0.80;0.80;;;;;;;22.45;38.27;99557.72;10436826;28;20548;-62
2021/08/26 13:27:35;;;;;;;0.80;0.80;;;;;;;22.17;38.87;99550.41;10405399;28;20090;-62
2021/08/26 13:32:37;;;;;;;0.80;0.80;;;;;;;21.53;39.13;99556.78;10445712;28;20072;-62
2021/08/26 13:37:44;;;;;;;0.80;0.80;;;;;;;21.17;39.44;99568.78;10444437;28;20049;-62
2021/08/26 13:42:46;;;;;;;0.80;0.80;;;;;;;21.31;40.36;99563.63;10442926;28;20072;-62
2021/08/26 13:47:50;;;;;;;0.90;0.90;;;;;;;21.11;40.47;99561.47;10443294;28;20126;-63
2021/08/26 13:53:04;;;;;;;0.80;0.80;;;;;;;21.27;40.70;99554.31;10432762;28;20056;-62
2021/08/26 13:58:05;;;;;;;0.88;0.88;;;;;;;21.34;40.56;99552.66;10438980;28;20573;-62
2021/08/26 14:03:07;;;;;;;0.80;0.80;;;;;;;21.39;40.74;99549.50;10429622;28;20132;-62
2021/08/26 14:08:09;;;;;;;4.88;2.10;;;;;;;21.32;40.77;99543.19;10443637;28;20056;-62
2021/08/26 14:13:11;;;;;;;6.35;2.25;;;;;;;21.33;41.13;99544.84;10450383;28;20135;-62
2021/08/26 14:18:12;;;;;;;4.78;2.28;;;;;;;21.21;41.40;99540.84;10436362;28;20128;-62
2021/08/26 14:23:14;;;;;;;4.03;2.00;;;;;;;21.03;42.05;99544.53;10451572;28;20060;-62
2021/08/26 14:28:16;;;;;;;4.10;2.20;;;;;;;21.09;41.33;99535.88;10449796;28;20109;-62
2021/08/26 14:33:18;;;;;;;5.15;2.20;;;;;;;21.47;40.56;99526.38;10449866;28;20091;-62
2021/08/26 14:38:20;;;;;;;5.85;2.40;;;;;;;21.19;39.86;99534.88;10450782;28;20470;-62
2021/08/26 14:43:23;;;;;;;5.35;2.40;;;;;;;21.15;40.15;99530.88;10450998;28;20102;-62
2021/08/26 14:48:25;;;;;;;5.70;2.50;;;;;;;21.33;40.01;99526.22;10450771;28;20080;-62
2021/08/26 14:53:27;;;;;;;6.35;2.30;;;;;;;21.09;40.77;99506.63;10451520;28;20097;-62
2021/08/26 14:58:29;;;;;;;6.00;2.45;;;;;;;20.91;41.33;99508.63;10448666;28;20537;-62
2021/08/26 15:03:31;;;;;;;5.82;2.45;;;;;;;20.74;41.99;99514.13;10451185;28;20554;-62
2021/08/26 15:08:33;;;;;;;6.65;2.92;;;;;;;20.96;41.85;99510.81;10442860;28;20049;-62
2021/08/26 15:13:35;;;;;;;4.80;2.42;;;;;;;20.85;41.65;99505.81;10437062;28;20137;-61
2021/08/26 15:18:37;;;;;;;5.25;2.30;;;;;;;20.77;41.32;99503.16;10445659;28;20119;-61
2021/08/26 15:23:39;;;;;;;6.03;2.33;;;;;;;20.89;40.66;99505.31;10444907;28;20068;-61
2021/08/26 15:28:40;;;;;;;5.68;2.30;;;;;;;20.87;40.94;99509.13;10434942;28;20128;-62
2021/08/26 15:33:42;;;;;;;7.05;2.60;;;;;;;21.02;40.65;99520.75;10403691;28;20085;-61
2021/08/26 15:38:44;;;;;;;5.88;2.60;;;;;;;21.25;40.54;99516.41;10435198;28;20132;-61
2021/08/26 15:43:46;;;;;;;5.80;2.50;;;;;;;21.34;40.71;99507.44;10435731;28;20136;-61
2021/08/26 15:48:53;;;;;;;4.68;2.40;;;;;;;21.66;40.19;99509.19;10421332;28;20045;-61
2021/08/26 15:53:59;;;;;;;7.70;2.78;;;;;;;21.78;39.64;99508.59;10442619;28;20144;-61
2021/08/26 15:59:11;;;;;;;7.00;2.80;;;;;;;22.08;39.35;99508.81;10441364;28;20453;-62
2021/08/26 16:04:13;;;;;;;5.95;2.60;;;;;;;22.08;38.74;99516.81;10451874;28;20561;-62
2021/08/26 16:09:14;;;;;;;6.43;2.95;;;;;;;21.85;39.14;99514.06;10400485;28;1184312;-62
2021/08/26 16:14:16;;;;;;;6.88;3.00;;;;;;;21.37;39.69;99515.09;10423514;28;20499;-62
2021/08/26 16:19:18;;;;;;;7.32;3.30;;;;;;;21.27;39.99;99518.91;10419680;28;20051;-62
2021/08/26 16:24:21;;;;;;;7.93;3.10;;;;;;;21.46;40.46;99515.88;10443734;28;20106;-62
2021/08/26 16:29:22;;;;;;;13.38;3.15;;;;;;;21.88;39.83;99513.75;10436944;28;20072;-62
2021/08/26 16:34:24;;;;;;;6.22;2.70;;;;;;;21.79;40.21;99517.41;10421826;28;20145;-62
2021/08/26 16:39:26;;;;;;;10.75;2.85;;;;;;;21.33;41.01;99524.41;10406505;28;20502;-62
2021/08/26 16:44:28;;;;;;;7.47;2.60;;;;;;;20.96;41.74;99521.44;10431494;28;20565;-62
2021/08/26 16:49:30;;;;;;;10.15;2.95;;;;;;;20.47;41.62;99520.56;10446722;28;20127;-62
2021/08/26 16:54:31;;;;;;;6.93;3.08;;;;;;;20.27;42.35;99527.97;10445212;28;20143;-62
2021/08/26 16:59:33;;;;;;;7.35;3.00;;;;;;;20.14;42.09;99530.28;10447111;28;20055;-62
2021/08/26 17:04:35;;;;;;;6.20;2.88;;;;;;;20.05;42.42;99533.09;10420331;28;20132;-62
2021/08/26 17:09:37;;;;;;;9.15;3.08;;;;;;;20.03;42.91;99529.78;10436532;28;20147;-61
2021/08/26 17:14:39;;;;;;;11.52;3.33;;;;;;;19.78;43.61;99530.63;10419186;28;20132;-62
2021/08/26 17:19:40;;;;;;;8.13;2.80;;;;;;;19.71;43.95;99538.41;10406279;28;20136;-62
2021/08/26 17:24:42;;;;;;;8.20;3.35;;;;;;;19.53;44.34;99550.06;10446358;28;20132;-62
2021/08/26 17:29:44;;;;;;;6.28;3.00;;;;;;;19.40;44.89;99548.69;10445186;28;20076;-62
2021/08/26 17:34:45;;;;;;;8.90;2.80;;;;;;;19.44;44.92;99552.69;10437860;28;20115;-62
2021/08/26 17:39:47;;;;;;;8.25;2.35;;;;;;;19.50;45.02;99550.41;10439999;28;20048;-61
2021/08/26 17:44:49;;;;;;;6.72;2.83;;;;;;;19.48;45.23;99558.53;10442624;28;20478;-61
2021/08/26 17:49:51;;;;;;;5.78;2.78;;;;;;;19.36;45.76;99570.34;10441741;28;20548;-61
2021/08/26 17:54:52;;;;;;;6.85;2.80;;;;;;;19.10;46.15;99578.31;10431281;28;20128;-62
2021/08/26 17:59:54;;;;;;;6.32;3.08;;;;;;;18.91;46.48;99573.13;10424974;28;20150;-61
2021/08/26 18:04:56;;;;;;;5.60;2.42;;;;;;;18.81;46.79;99593.59;10419313;28;20140;-61
2021/08/26 18:09:57;;;;;;;7.22;2.42;;;;;;;18.82;46.74;99587.31;10441807;28;20045;-61
2021/08/26 18:14:59;;;;;;;7.35;2.58;;;;;;;18.79;47.07;99592.09;10431113;28;20044;-62
2021/08/26 18:20:03;;;;;;;7.88;2.50;;;;;;;18.74;47.25;99597.84;10443474;28;20088;-62
2021/08/26 18:25:06;;;;;;;7.32;2.60;;;;;;;18.72;47.62;99604.25;10435459;28;20072;-62
2021/08/26 18:30:10;;;;;;;6.35;2.80;;;;;;;18.67;47.87;99607.38;10456677;28;20081;-62
2021/08/26 18:35:12;;;;;;;10.98;3.45;;;;;;;18.70;48.04;99615.03;10443757;28;20469;-62
2021/08/26 18:40:13;;;;;;;8.52;3.35;;;;;;;18.56;48.80;99605.75;10428301;28;20088;-62
2021/08/26 18:45:15;;;;;;;9.07;3.67;;;;;;;18.55;48.71;99620.00;10433957;28;20053;-62
2021/08/26 18:50:18;;;;;;;6.95;3.10;;;;;;;18.57;48.74;99627.78;10443006;28;20045;-62
2021/08/26 18:55:20;;;;;;;9.07;3.08;;;;;;;18.59;48.91;99626.66;10434014;28;20160;-59
2021/08/26 19:00:22;;;;;;;9.18;3.20;;;;;;;18.57;48.81;99625.13;10452548;28;20123;-59
2021/08/26 19:05:23;;;;;;;7.38;3.25;;;;;;;18.49;49.52;99641.78;10473113;28;20041;-59
2021/08/26 19:10:25;;;;;;;10.93;3.65;;;;;;;18.48;49.72;99640.09;10447579;28;20592;-59
2021/08/26 19:15:28;;;;;;;9.63;3.03;;;;;;;18.22;50.42;99641.78;10450418;28;20131;-59
2021/08/26 19:20:30;;;;;;;10.27;3.40;;;;;;;18.25;50.08;99653.91;10449698;28;20076;-59
2021/08/26 19:25:32;;;;;;;8.05;3.05;;;;;;;18.15;51.71;99658.38;10450571;28;20049;-59
2021/08/26 19:30:35;;;;;;;8.90;2.97;;;;;;;17.88;52.39;99661.81;10443065;28;20076;-59
2021/08/26 19:35:37;;;;;;;8.50;3.17;;;;;;;17.79;52.83;99665.34;10436398;28;20140;-59
2021/08/26 19:40:40;;;;;;;8.13;3.10;;;;;;;17.68;53.88;99676.91;10447818;28;20053;-59
2021/08/26 19:45:42;;;;;;;7.13;3.20;;;;;;;17.65;54.01;99685.13;10448734;28;20076;-59
2021/08/26 19:50:43;;;;;;;9.60;2.83;;;;;;;17.21;53.92;99698.91;10448080;28;20060;-59
2021/08/26 19:55:45;;;;;;;6.28;2.47;;;;;;;16.94;54.52;99694.31;10426514;28;20140;-58
2021/08/26 20:00:47;;;;;;;6.35;2.30;;;;;;;16.70;53.86;99708.88;10469584;28;20129;-59
2021/08/26 20:05:51;;;;;;;3.97;1.85;;;;;;;16.55;53.22;99718.97;10447626;28;20800;-59
2021/08/26 20:10:53;;;;;;;4.10;2.00;;;;;;;16.49;53.74;99721.34;10447186;28;20052;-59
2021/08/26 20:15:55;;;;;;;3.65;1.90;;;;;;;16.60;53.99;99715.94;10447202;28;20110;-58
2021/08/26 20:20:57;;;;;;;3.42;1.90;;;;;;;16.48;53.98;99717.00;10447484;28;20091;-58
2021/08/26 20:26:01;;;;;;;4.18;2.10;;;;;;;16.73;55.40;99706.78;10446876;28;20061;-58
2021/08/26 20:31:03;;;;;;;5.53;2.30;;;;;;;16.80;55.58;99707.06;10447487;28;20088;-59
2021/08/26 20:36:05;;;;;;;3.95;2.00;;;;;;;16.84;54.85;99708.47;10445985;28;20044;-59
2021/08/26 20:41:07;;;;;;;4.93;2.20;;;;;;;16.68;55.04;99716.09;10446141;28;20132;-59
2021/08/26 20:46:09;;;;;;;5.45;2.10;;;;;;;16.72;54.94;99717.50;10446469;28;20124;-59
2021/08/26 20:51:11;;;;;;;4.28;2.00;;;;;;;16.72;55.35;99720.13;10473013;28;20045;-59
2021/08/26 20:56:12;;;;;;;5.70;2.20;;;;;;;16.74;56.56;99726.09;10445248;28;20132;-58
2021/08/26 21:01:15;;;;;;;5.53;2.20;;;;;;;16.67;56.34;99723.16;10445152;28;20053;-59
2021/08/26 21:06:16;;;;;;;3.97;1.88;;;;;;;16.63;57.16;99723.59;10425354;28;20045;-58
2021/08/26 21:11:18;;;;;;;4.78;1.98;;;;;;;16.58;57.27;99724.00;10444912;28;20524;-58
2021/08/26 21:16:20;;;;;;;3.65;1.75;;;;;;;16.56;56.93;99717.16;10443365;28;20135;-58
2021/08/26 21:21:22;;;;;;;5.53;1.90;;;;;;;16.53;56.69;99717.47;10430233;28;20053;-59
2021/08/26 21:26:23;;;;;;;4.28;2.00;;;;;;;16.46;57.29;99721.59;10447788;28;20569;-59
2021/08/26 21:31:25;;;;;;;3.78;1.90;;;;;;;16.22;57.34;99717.41;10442393;28;20643;-58
2021/08/26 21:36:27;;;;;;;4.30;1.55;;;;;;;15.98;57.52;99724.81;10443417;28;20512;-59
2021/08/26 21:41:29;;;;;;;4.22;1.77;;;;;;;15.79;57.90;99719.44;10442941;28;20135;-58
2021/08/26 21:46:30;;;;;;;4.35;2.10;;;;;;;15.54;58.33;99733.00;10441046;28;20139;-58
2021/08/26 21:51:32;;;;;;;4.43;2.03;;;;;;;15.32;58.74;99730.44;10441944;28;20076;-58
2021/08/26 21:56:34;;;;;;;3.53;1.80;;;;;;;15.23;59.35;99732.03;10440078;28;20051;-58
2021/08/26 22:01:35;;;;;;;4.72;2.00;;;;;;;15.11;59.07;99732.19;10440038;28;20557;-58
2021/08/26 22:06:37;;;;;;;4.00;2.03;;;;;;;14.99;59.90;99733.19;10434984;28;20140;-59
2021/08/26 22:11:39;;;;;;;4.93;2.83;;;;;;;14.86;60.00;99733.31;10438711;28;20485;-58
2021/08/26 22:16:42;;;;;;;5.75;2.60;;;;;;;14.84;60.22;99737.06;10441947;28;20091;-59
2021/08/26 22:21:44;;;;;;;4.50;2.40;;;;;;;14.72;60.67;99738.03;10441735;28;20053;-58
2021/08/26 22:26:46;;;;;;;5.40;2.50;;;;;;;14.55;61.05;99750.72;10439886;28;20440;-58
2021/08/26 22:31:48;;;;;;;6.22;2.78;;;;;;;14.55;61.12;99750.72;10444888;28;20057;-58
2021/08/26 22:36:50;;;;;;;8.90;3.05;;;;;;;14.51;60.62;99754.56;10449917;28;20683;-58
2021/08/26 22:41:52;;;;;;;7.20;3.03;;;;;;;14.44;61.50;99750.72;10448471;28;20128;-58
2021/08/26 22:46:53;;;;;;;8.23;3.60;;;;;;;14.46;61.79;99750.59;10448668;28;20132;-58
2021/08/26 22:51:55;;;;;;;8.43;3.53;;;;;;;14.47;61.61;99762.81;10448242;28;20253;-59
2021/08/26 22:56:57;;;;;;;8.00;3.30;;;;;;;14.38;61.69;99766.97;10448738;28;20131;-58
2021/08/26 23:01:59;;;;;;;7.35;3.05;;;;;;;14.29;62.08;99767.69;10449009;28;20528;-59
2021/08/26 23:07:01;;;;;;;5.60;3.08;;;;;;;14.32;61.83;99774.50;10448021;28;20044;-58
2021/08/26 23:12:03;;;;;;;5.05;2.63;;;;;;;14.27;62.01;99777.50;10449302;28;20490;-58
2021/08/26 23:17:05;;;;;;;8.55;3.00;;;;;;;14.20;61.93;99776.31;10448458;28;20052;-58
2021/08/26 23:22:07;;;;;;;6.97;3.05;;;;;;;14.16;62.00;99779.28;10448960;28;20348;-58
2021/08/26 23:27:09;;;;;;;7.60;3.10;;;;;;;14.11;62.28;99784.88;10449302;28;20126;-59
2021/08/26 23:32:12;;;;;;;6.80;2.88;;;;;;;14.17;62.16;99786.19;10447690;28;20544;-58
2021/08/26 23:37:14;;;;;;;6.15;2.92;;;;;;;14.16;61.91;99789.81;10449067;28;20143;-59